sensor_id;sensor_type;location;lat;lon;timestamp;P1;durP1;ratioP1;P2;durP2;ratioP2
16387;SDS011;8303;53.446;9.988;2022-08-11T04:45:33;21.73;;;20.20;;
16387;SDS011;8303;53.446;9.988;2022-08-11T04:48:20;23.47;;;21.70;;
16387;SDS011;8303;53.446;9.988;2022-08-11T04:51:24;21.87;;;20.23;;
16387;SDS011;8303;53.446;9.988;2022-08-11T04:54:25;20.60;;;18.93;;
16387;SDS011;8303;53.446;9.988;2022-08-11T04:57:26;25.23;;;23.40;;
16387;SDS011;8303;53.446;9.988;2022-08-11T05:00:19;27.20;;;25.23;;
16387;SDS011;8303;53.446;9.988;2022-08-11T05:03:34;25.80;;;24.00;;
16387;SDS011;8303;53.446;9.988;2022-08-11T05:12:18;30.10;;;28.17;;
16387;SDS011;8303;53.446;9.988;2022-08-11T05:14:55;35.73;;;33.40;;
16387;SDS011;8303;53.446;9.988;2022-08-11T05:17:41;33.23;;;30.87;;
16387;SDS011;8303;53.446;9.988;2022-08-11T05:20:30;31.70;;;28.77;;
16387;SDS011;8303;53.446;9.988;2022-08-11T05:23:27;32.13;;;29.87;;
16387;SDS011;8303;53.446;9.988;2022-08-11T05:26:13;41.23;;;38.60;;
16387;SDS011;8303;53.446;9.988;2022-08-11T05:29:01;41.77;;;39.03;;
16387;SDS011;8303;53.446;9.988;2022-08-11T05:31:49;44.80;;;41.80;;
16387;SDS011;8303;53.446;9.988;2022-08-11T05:34:42;35.67;;;33.23;;
16387;SDS011;8303;53.446;9.988;2022-08-11T05:37:18;38.60;;;36.27;;
16387;SDS011;8303;53.446;9.988;2022-08-11T05:39:52;38.67;;;35.90;;
16387;SDS011;8303;53.446;9.988;2022-08-11T05:42:43;35.33;;;32.73;;
16387;SDS011;8303;53.446;9.988;2022-08-11T05:45:33;36.57;;;34.20;;
16387;SDS011;8303;53.446;9.988;2022-08-11T05:48:18;35.47;;;33.20;;
16387;SDS011;8303;53.446;9.988;2022-08-11T05:51:03;29.73;;;27.63;;
16387;SDS011;8303;53.446;9.988;2022-08-11T05:53:51;27.17;;;25.43;;
16387;SDS011;8303;53.446;9.988;2022-08-11T05:56:41;18.90;;;17.43;;
16387;SDS011;8303;53.446;9.988;2022-08-11T05:59:13;17.13;;;15.73;;
16387;SDS011;8303;53.446;9.988;2022-08-11T06:01:43;13.57;;;12.30;;
16387;SDS011;8303;53.446;9.988;2022-08-11T06:04:14;8.87;;;8.07;;
16387;SDS011;8303;53.446;9.988;2022-08-11T06:06:47;7.00;;;6.37;;
16387;SDS011;8303;53.446;9.988;2022-08-11T06:09:21;6.13;;;5.57;;
16387;SDS011;8303;53.446;9.988;2022-08-11T06:11:56;7.65;;;5.22;;
16387;SDS011;8303;53.446;9.988;2022-08-11T06:14:26;7.23;;;6.13;;
16387;SDS011;8303;53.446;9.988;2022-08-11T06:16:56;11.80;;;6.43;;
16387;SDS011;8303;53.446;9.988;2022-08-11T06:19:35;7.13;;;6.00;;
16387;SDS011;8303;53.446;9.988;2022-08-11T06:22:05;8.68;;;6.50;;
16387;SDS011;8303;53.446;9.988;2022-08-11T06:24:38;7.28;;;6.60;;
16387;SDS011;8303;53.446;9.988;2022-08-11T06:27:07;9.07;;;5.95;;
16387;SDS011;8303;53.446;9.988;2022-08-11T06:29:35;8.63;;;6.32;;
16387;SDS011;8303;53.446;9.988;2022-08-11T06:32:12;6.25;;;5.53;;
16387;SDS011;8303;53.446;9.988;2022-08-11T06:34:48;7.78;;;6.03;;
16387;SDS011;8303;53.446;9.988;2022-08-11T06:37:34;5.47;;;4.35;;
16387;SDS011;8303;53.446;9.988;2022-08-11T06:40:15;9.25;;;4.35;;
16387;SDS011;8303;53.446;9.988;2022-08-11T06:42:53;5.93;;;4.32;;
16387;SDS011;8303;53.446;9.988;2022-08-11T06:45:29;8.27;;;4.18;;
16387;SDS011;8303;53.446;9.988;2022-08-11T06:48:08;5.78;;;4.53;;
16387;SDS011;8303;53.446;9.988;2022-08-11T06:50:46;6.05;;;4.20;;
16387;SDS011;8303;53.446;9.988;2022-08-11T06:53:32;5.15;;;3.90;;
16387;SDS011;8303;53.446;9.988;2022-08-11T06:56:03;10.57;;;4.30;;
16387;SDS011;8303;53.446;9.988;2022-08-11T06:58:50;8.05;;;4.38;;
16387;SDS011;8303;53.446;9.988;2022-08-11T07:01:38;6.18;;;4.30;;
16387;SDS011;8303;53.446;9.988;2022-08-11T07:04:12;7.00;;;3.95;;
16387;SDS011;8303;53.446;9.988;2022-08-11T07:06:54;4.57;;;3.83;;
16387;SDS011;8303;53.446;9.988;2022-08-11T07:10:02;5.80;;;3.80;;
16387;SDS011;8303;53.446;9.988;2022-08-11T07:13:12;6.57;;;3.92;;
16387;SDS011;8303;53.446;9.988;2022-08-11T07:15:59;4.53;;;3.63;;
16387;SDS011;8303;53.446;9.988;2022-08-11T07:18:28;5.35;;;3.67;;
16387;SDS011;8303;53.446;9.988;2022-08-11T07:21:19;7.10;;;3.90;;
16387;SDS011;8303;53.446;9.988;2022-08-11T07:24:07;6.78;;;4.00;;
16387;SDS011;8303;53.446;9.988;2022-08-11T07:26:57;6.75;;;3.90;;
16387;SDS011;8303;53.446;9.988;2022-08-11T07:29:45;5.55;;;4.05;;
16387;SDS011;8303;53.446;9.988;2022-08-11T07:32:16;6.78;;;4.13;;
16387;SDS011;8303;53.446;9.988;2022-08-11T07:34:50;6.10;;;3.85;;
16387;SDS011;8303;53.446;9.988;2022-08-11T07:37:22;4.53;;;3.78;;
16387;SDS011;8303;53.446;9.988;2022-08-11T07:39:53;4.80;;;4.30;;
16387;SDS011;8303;53.446;9.988;2022-08-11T07:42:22;7.05;;;4.28;;
16387;SDS011;8303;53.446;9.988;2022-08-11T07:44:56;12.90;;;5.03;;
16387;SDS011;8303;53.446;9.988;2022-08-11T07:47:42;4.32;;;3.67;;
16387;SDS011;8303;53.446;9.988;2022-08-11T07:50:29;4.20;;;3.88;;
16387;SDS011;8303;53.446;9.988;2022-08-11T07:53:14;4.55;;;3.95;;
16387;SDS011;8303;53.446;9.988;2022-08-11T07:55:46;4.80;;;3.65;;
16387;SDS011;8303;53.446;9.988;2022-08-11T07:58:14;6.43;;;4.00;;
16387;SDS011;8303;53.446;9.988;2022-08-11T08:01:01;5.28;;;3.95;;
16387;SDS011;8303;53.446;9.988;2022-08-11T08:03:46;4.00;;;3.60;;
16387;SDS011;8303;53.446;9.988;2022-08-11T08:06:31;6.43;;;4.07;;
16387;SDS011;8303;53.446;9.988;2022-08-11T08:09:17;6.30;;;4.03;;
16387;SDS011;8303;53.446;9.988;2022-08-11T08:12:07;4.60;;;4.10;;
16387;SDS011;8303;53.446;9.988;2022-08-11T08:14:53;6.63;;;3.90;;
16387;SDS011;8303;53.446;9.988;2022-08-11T08:17:40;5.68;;;3.70;;
16387;SDS011;8303;53.446;9.988;2022-08-11T08:20:16;4.07;;;3.60;;
16387;SDS011;8303;53.446;9.988;2022-08-11T08:22:46;6.25;;;3.80;;
16387;SDS011;8303;53.446;9.988;2022-08-11T08:25:21;4.18;;;3.58;;
16387;SDS011;8303;53.446;9.988;2022-08-11T08:27:50;5.97;;;3.80;;
16387;SDS011;8303;53.446;9.988;2022-08-11T08:30:18;5.22;;;4.45;;
16387;SDS011;8303;53.446;9.988;2022-08-11T08:33:04;4.60;;;4.15;;
16387;SDS011;8303;53.446;9.988;2022-08-11T08:35:32;4.47;;;4.07;;
16387;SDS011;8303;53.446;9.988;2022-08-11T08:38:01;6.97;;;4.07;;
16387;SDS011;8303;53.446;9.988;2022-08-11T08:40:29;5.03;;;3.97;;
16387;SDS011;8303;53.446;9.988;2022-08-11T08:42:57;4.97;;;3.95;;
16387;SDS011;8303;53.446;9.988;2022-08-11T08:45:28;5.13;;;4.18;;
16387;SDS011;8303;53.446;9.988;2022-08-11T08:48:00;4.38;;;3.97;;
16387;SDS011;8303;53.446;9.988;2022-08-11T08:50:36;8.20;;;3.97;;
16387;SDS011;8303;53.446;9.988;2022-08-11T08:53:26;6.28;;;4.75;;
16387;SDS011;8303;53.446;9.988;2022-08-11T08:56:00;6.63;;;4.35;;
16387;SDS011;8303;53.446;9.988;2022-08-11T08:58:31;5.28;;;4.78;;
16387;SDS011;8303;53.446;9.988;2022-08-11T09:01:04;4.72;;;4.15;;
16387;SDS011;8303;53.446;9.988;2022-08-11T09:03:37;7.82;;;4.97;;
16387;SDS011;8303;53.446;9.988;2022-08-11T09:06:09;6.72;;;5.18;;
16387;SDS011;8303;53.446;9.988;2022-08-11T09:08:39;5.72;;;4.68;;
16387;SDS011;8303;53.446;9.988;2022-08-11T09:11:07;6.30;;;4.60;;
16387;SDS011;8303;53.446;9.988;2022-08-11T09:13:53;8.35;;;4.90;;
16387;SDS011;8303;53.446;9.988;2022-08-11T09:16:21;7.38;;;6.70;;
16387;SDS011;8303;53.446;9.988;2022-08-11T09:18:49;13.57;;;7.28;;
16387;SDS011;8303;53.446;9.988;2022-08-11T09:21:19;7.65;;;6.95;;
16387;SDS011;8303;53.446;9.988;2022-08-11T09:23:47;6.88;;;5.70;;
16387;SDS011;8303;53.446;9.988;2022-08-11T09:26:33;8.45;;;7.63;;
16387;SDS011;8303;53.446;9.988;2022-08-11T09:29:25;9.82;;;9.10;;
16387;SDS011;8303;53.446;9.988;2022-08-11T09:31:55;11.35;;;10.27;;
16387;SDS011;8303;53.446;9.988;2022-08-11T09:34:23;10.63;;;9.93;;
16387;SDS011;8303;53.446;9.988;2022-08-11T09:36:56;12.52;;;11.50;;
16387;SDS011;8303;53.446;9.988;2022-08-11T09:39:42;11.10;;;9.93;;
16387;SDS011;8303;53.446;9.988;2022-08-11T09:42:27;10.82;;;9.73;;
16387;SDS011;8303;53.446;9.988;2022-08-11T09:45:09;12.70;;;11.68;;
16387;SDS011;8303;53.446;9.988;2022-08-11T09:47:39;13.25;;;12.45;;
16387;SDS011;8303;53.446;9.988;2022-08-11T09:50:13;16.98;;;15.93;;
16387;SDS011;8303;53.446;9.988;2022-08-11T09:52:43;34.08;;;32.13;;
16387;SDS011;8303;53.446;9.988;2022-08-11T09:55:13;41.30;;;39.10;;
16387;SDS011;8303;53.446;9.988;2022-08-11T09:57:43;32.00;;;29.80;;
16387;SDS011;8303;53.446;9.988;2022-08-11T10:00:29;39.25;;;37.13;;
16387;SDS011;8303;53.446;9.988;2022-08-11T10:03:01;41.53;;;39.03;;
16387;SDS011;8303;53.446;9.988;2022-08-11T10:05:31;36.72;;;34.42;;
16387;SDS011;8303;53.446;9.988;2022-08-11T10:08:22;44.78;;;42.10;;
16387;SDS011;8303;53.446;9.988;2022-08-11T10:10:53;46.85;;;44.08;;
16387;SDS011;8303;53.446;9.988;2022-08-11T10:13:25;73.78;;;69.88;;
16387;SDS011;8303;53.446;9.988;2022-08-11T10:16:00;76.22;;;72.00;;
16387;SDS011;8303;53.446;9.988;2022-08-11T10:18:29;71.82;;;67.93;;
16387;SDS011;8303;53.446;9.988;2022-08-11T10:21:08;57.13;;;53.97;;
16387;SDS011;8303;53.446;9.988;2022-08-11T10:23:40;67.68;;;63.78;;
16387;SDS011;8303;53.446;9.988;2022-08-11T10:26:26;89.50;;;84.82;;
16387;SDS011;8303;53.446;9.988;2022-08-11T10:29:12;74.47;;;70.35;;
16387;SDS011;8303;53.446;9.988;2022-08-11T10:31:58;77.22;;;73.20;;
16387;SDS011;8303;53.446;9.988;2022-08-11T10:34:44;75.97;;;71.72;;
16387;SDS011;8303;53.446;9.988;2022-08-11T10:37:12;74.63;;;70.65;;
16387;SDS011;8303;53.446;9.988;2022-08-11T10:39:41;71.90;;;68.00;;
16387;SDS011;8303;53.446;9.988;2022-08-11T10:42:10;64.45;;;60.92;;
16387;SDS011;8303;53.446;9.988;2022-08-11T10:44:56;94.43;;;89.43;;
16387;SDS011;8303;53.446;9.988;2022-08-11T10:47:25;67.72;;;63.88;;
16387;SDS011;8303;53.446;9.988;2022-08-11T10:50:00;107.03;;;101.68;;
16387;SDS011;8303;53.446;9.988;2022-08-11T10:52:47;71.18;;;67.20;;
16387;SDS011;8303;53.446;9.988;2022-08-11T10:55:36;70.70;;;66.97;;
16387;SDS011;8303;53.446;9.988;2022-08-11T10:58:21;104.70;;;99.15;;
16387;SDS011;8303;53.446;9.988;2022-08-11T11:01:06;122.70;;;116.55;;
16387;SDS011;8303;53.446;9.988;2022-08-11T11:03:34;98.20;;;93.13;;
16387;SDS011;8303;53.446;9.988;2022-08-11T11:06:04;120.05;;;113.85;;
16387;SDS011;8303;53.446;9.988;2022-08-11T11:08:35;122.28;;;115.68;;
16387;SDS011;8303;53.446;9.988;2022-08-11T11:11:22;132.45;;;125.65;;
16387;SDS011;8303;53.446;9.988;2022-08-11T11:14:13;120.30;;;113.72;;
16387;SDS011;8303;53.446;9.988;2022-08-11T11:17:01;131.27;;;124.68;;
16387;SDS011;8303;53.446;9.988;2022-08-11T11:19:48;100.05;;;94.78;;
16387;SDS011;8303;53.446;9.988;2022-08-11T11:22:21;101.97;;;96.72;;
16387;SDS011;8303;53.446;9.988;2022-08-11T11:25:13;120.53;;;114.40;;
16387;SDS011;8303;53.446;9.988;2022-08-11T11:28:02;95.25;;;90.13;;
16387;SDS011;8303;53.446;9.988;2022-08-11T11:30:41;124.75;;;118.38;;
16387;SDS011;8303;53.446;9.988;2022-08-11T11:33:22;121.00;;;114.85;;
16387;SDS011;8303;53.446;9.988;2022-08-11T11:36:02;129.60;;;123.00;;
16387;SDS011;8303;53.446;9.988;2022-08-11T11:38:36;113.35;;;107.35;;
16387;SDS011;8303;53.446;9.988;2022-08-11T11:41:05;87.72;;;83.00;;
16387;SDS011;8303;53.446;9.988;2022-08-11T11:43:53;120.28;;;113.85;;
16387;SDS011;8303;53.446;9.988;2022-08-11T11:46:22;106.28;;;100.82;;
16387;SDS011;8303;53.446;9.988;2022-08-11T11:48:52;99.20;;;94.20;;
16387;SDS011;8303;53.446;9.988;2022-08-11T11:51:20;102.30;;;96.82;;
16387;SDS011;8303;53.446;9.988;2022-08-11T11:53:48;110.22;;;104.22;;
16387;SDS011;8303;53.446;9.988;2022-08-11T11:56:16;85.97;;;81.25;;
16387;SDS011;8303;53.446;9.988;2022-08-11T11:58:46;87.55;;;83.00;;
16387;SDS011;8303;53.446;9.988;2022-08-11T12:01:32;90.20;;;85.40;;
16387;SDS011;8303;53.446;9.988;2022-08-11T12:04:00;87.13;;;82.65;;
16387;SDS011;8303;53.446;9.988;2022-08-11T12:06:30;84.65;;;80.25;;
16387;SDS011;8303;53.446;9.988;2022-08-11T12:08:58;99.65;;;94.65;;
16387;SDS011;8303;53.446;9.988;2022-08-11T12:11:25;102.28;;;97.10;;
16387;SDS011;8303;53.446;9.988;2022-08-11T12:14:12;84.25;;;79.75;;
16387;SDS011;8303;53.446;9.988;2022-08-11T12:16:44;87.95;;;83.50;;
16387;SDS011;8303;53.446;9.988;2022-08-11T12:19:13;87.47;;;82.75;;
16387;SDS011;8303;53.446;9.988;2022-08-11T12:21:42;103.18;;;97.75;;
16387;SDS011;8303;53.446;9.988;2022-08-11T12:24:23;90.10;;;85.40;;
16387;SDS011;8303;53.446;9.988;2022-08-11T12:27:08;98.28;;;93.07;;
16387;SDS011;8303;53.446;9.988;2022-08-11T12:29:48;96.05;;;91.20;;
16387;SDS011;8303;53.446;9.988;2022-08-11T12:32:18;98.95;;;93.68;;
16387;SDS011;8303;53.446;9.988;2022-08-11T12:34:46;97.28;;;92.20;;
16387;SDS011;8303;53.446;9.988;2022-08-11T12:37:14;107.10;;;101.55;;
16387;SDS011;8303;53.446;9.988;2022-08-11T12:39:47;85.93;;;81.38;;
16387;SDS011;8303;53.446;9.988;2022-08-11T12:42:35;88.53;;;83.93;;
16387;SDS011;8303;53.446;9.988;2022-08-11T12:45:23;98.13;;;92.97;;
16387;SDS011;8303;53.446;9.988;2022-08-11T12:48:07;94.82;;;90.05;;
16387;SDS011;8303;53.446;9.988;2022-08-11T12:50:54;99.75;;;94.75;;
16387;SDS011;8303;53.446;9.988;2022-08-11T12:53:45;102.78;;;97.53;;
16387;SDS011;8303;53.446;9.988;2022-08-11T12:56:19;100.75;;;95.65;;
16387;SDS011;8303;53.446;9.988;2022-08-11T12:59:06;102.72;;;97.03;;
16387;SDS011;8303;53.446;9.988;2022-08-11T13:01:51;104.40;;;99.07;;
16387;SDS011;8303;53.446;9.988;2022-08-11T13:04:37;96.75;;;91.68;;
16387;SDS011;8303;53.446;9.988;2022-08-11T13:07:24;97.72;;;92.45;;
16387;SDS011;8303;53.446;9.988;2022-08-11T13:09:52;104.32;;;98.93;;
16387;SDS011;8303;53.446;9.988;2022-08-11T13:12:21;95.90;;;91.05;;
16387;SDS011;8303;53.446;9.988;2022-08-11T13:15:06;99.10;;;94.13;;
16387;SDS011;8303;53.446;9.988;2022-08-11T13:17:35;99.78;;;94.70;;
16387;SDS011;8303;53.446;9.988;2022-08-11T13:20:06;100.20;;;94.72;;
16387;SDS011;8303;53.446;9.988;2022-08-11T13:22:38;103.10;;;97.78;;
16387;SDS011;8303;53.446;9.988;2022-08-11T13:25:10;101.78;;;96.60;;
16387;SDS011;8303;53.446;9.988;2022-08-11T13:27:38;95.88;;;90.55;;
16387;SDS011;8303;53.446;9.988;2022-08-11T13:30:06;96.13;;;91.20;;
16387;SDS011;8303;53.446;9.988;2022-08-11T13:32:51;94.18;;;89.28;;
16387;SDS011;8303;53.446;9.988;2022-08-11T13:35:21;104.40;;;99.10;;
16387;SDS011;8303;53.446;9.988;2022-08-11T13:37:48;98.63;;;93.47;;
16387;SDS011;8303;53.446;9.988;2022-08-11T13:40:17;103.88;;;98.68;;
16387;SDS011;8303;53.446;9.988;2022-08-11T13:42:46;101.82;;;96.60;;
16387;SDS011;8303;53.446;9.988;2022-08-11T13:45:14;101.03;;;95.75;;
16387;SDS011;8303;53.446;9.988;2022-08-11T13:47:41;106.47;;;100.88;;
16387;SDS011;8303;53.446;9.988;2022-08-11T13:50:09;100.05;;;94.78;;
16387;SDS011;8303;53.446;9.988;2022-08-11T13:52:39;97.45;;;92.50;;
16387;SDS011;8303;53.446;9.988;2022-08-11T13:55:07;96.47;;;91.47;;
16387;SDS011;8303;53.446;9.988;2022-08-11T13:57:46;77.07;;;73.05;;
16387;SDS011;8303;53.446;9.988;2022-08-11T14:00:14;43.55;;;41.15;;
16387;SDS011;8303;53.446;9.988;2022-08-11T14:02:42;29.67;;;28.10;;
16387;SDS011;8303;53.446;9.988;2022-08-11T14:05:11;25.13;;;23.73;;
16387;SDS011;8303;53.446;9.988;2022-08-11T14:07:47;15.85;;;14.95;;
16387;SDS011;8303;53.446;9.988;2022-08-11T14:10:17;16.02;;;15.10;;
16387;SDS011;8303;53.446;9.988;2022-08-11T14:12:46;12.15;;;11.40;;
16387;SDS011;8303;53.446;9.988;2022-08-11T14:15:38;11.50;;;10.82;;
16387;SDS011;8303;53.446;9.988;2022-08-11T14:18:10;20.02;;;18.65;;
16387;SDS011;8303;53.446;9.988;2022-08-11T14:20:42;13.13;;;12.25;;
16387;SDS011;8303;53.446;9.988;2022-08-11T14:23:31;15.63;;;14.63;;
16387;SDS011;8303;53.446;9.988;2022-08-11T14:26:03;15.05;;;14.10;;
16387;SDS011;8303;53.446;9.988;2022-08-11T14:28:51;21.00;;;19.90;;
16387;SDS011;8303;53.446;9.988;2022-08-11T14:31:20;19.27;;;18.27;;
16387;SDS011;8303;53.446;9.988;2022-08-11T14:33:49;25.88;;;24.17;;
16387;SDS011;8303;53.446;9.988;2022-08-11T14:36:19;31.08;;;29.38;;
16387;SDS011;8303;53.446;9.988;2022-08-11T14:38:49;31.38;;;29.67;;
16387;SDS011;8303;53.446;9.988;2022-08-11T14:41:17;37.47;;;35.22;;
16387;SDS011;8303;53.446;9.988;2022-08-11T14:44:02;38.40;;;36.15;;
16387;SDS011;8303;53.446;9.988;2022-08-11T14:46:47;37.83;;;35.83;;
16387;SDS011;8303;53.446;9.988;2022-08-11T14:49:30;33.63;;;31.75;;
16387;SDS011;8303;53.446;9.988;2022-08-11T14:52:00;30.13;;;28.52;;
16387;SDS011;8303;53.446;9.988;2022-08-11T14:54:30;34.15;;;32.35;;
16387;SDS011;8303;53.446;9.988;2022-08-11T14:57:15;37.55;;;35.47;;
16387;SDS011;8303;53.446;9.988;2022-08-11T14:59:44;35.92;;;33.95;;
16387;SDS011;8303;53.446;9.988;2022-08-11T15:02:13;31.60;;;29.80;;
16387;SDS011;8303;53.446;9.988;2022-08-11T15:04:59;29.40;;;27.40;;
16387;SDS011;8303;53.446;9.988;2022-08-11T15:07:27;38.33;;;36.25;;
16387;SDS011;8303;53.446;9.988;2022-08-11T15:09:58;28.70;;;27.20;;
16387;SDS011;8303;53.446;9.988;2022-08-11T15:12:26;28.50;;;26.90;;
16387;SDS011;8303;53.446;9.988;2022-08-11T15:14:55;29.38;;;27.77;;
16387;SDS011;8303;53.446;9.988;2022-08-11T15:17:40;30.55;;;28.85;;
16387;SDS011;8303;53.446;9.988;2022-08-11T15:20:09;30.45;;;28.65;;
16387;SDS011;8303;53.446;9.988;2022-08-11T15:22:57;31.40;;;29.52;;
16387;SDS011;8303;53.446;9.988;2022-08-11T15:25:45;29.95;;;28.05;;
16387;SDS011;8303;53.446;9.988;2022-08-11T15:28:18;30.58;;;28.88;;
16387;SDS011;8303;53.446;9.988;2022-08-11T15:31:04;26.65;;;25.15;;
16387;SDS011;8303;53.446;9.988;2022-08-11T15:33:50;23.65;;;22.17;;
16387;SDS011;8303;53.446;9.988;2022-08-11T15:36:36;21.77;;;20.48;;
16387;SDS011;8303;53.446;9.988;2022-08-11T15:39:22;27.63;;;26.08;;
16387;SDS011;8303;53.446;9.988;2022-08-11T15:41:56;29.52;;;27.70;;
16387;SDS011;8303;53.446;9.988;2022-08-11T15:44:45;30.80;;;29.17;;
16387;SDS011;8303;53.446;9.988;2022-08-11T15:47:38;30.42;;;28.73;;
16387;SDS011;8303;53.446;9.988;2022-08-11T15:50:09;24.73;;;23.30;;
16387;SDS011;8303;53.446;9.988;2022-08-11T15:52:43;29.77;;;27.98;;
16387;SDS011;8303;53.446;9.988;2022-08-11T15:55:14;28.55;;;26.95;;
16387;SDS011;8303;53.446;9.988;2022-08-11T15:57:43;29.40;;;27.90;;
16387;SDS011;8303;53.446;9.988;2022-08-11T16:00:34;26.73;;;25.00;;
16387;SDS011;8303;53.446;9.988;2022-08-11T16:03:21;26.25;;;24.65;;
16387;SDS011;8303;53.446;9.988;2022-08-11T16:06:08;24.13;;;22.73;;
16387;SDS011;8303;53.446;9.988;2022-08-11T16:08:36;23.20;;;21.48;;
16387;SDS011;8303;53.446;9.988;2022-08-11T16:11:05;20.45;;;18.70;;
16387;SDS011;8303;53.446;9.988;2022-08-11T16:13:35;18.83;;;17.27;;
16387;SDS011;8303;53.446;9.988;2022-08-11T16:16:21;18.42;;;17.33;;
16387;SDS011;8303;53.446;9.988;2022-08-11T16:18:49;20.30;;;19.15;;
16387;SDS011;8303;53.446;9.988;2022-08-11T16:21:21;17.02;;;15.88;;
16387;SDS011;8303;53.446;9.988;2022-08-11T16:23:51;18.80;;;17.45;;
16387;SDS011;8303;53.446;9.988;2022-08-11T16:26:21;17.02;;;15.95;;
16387;SDS011;8303;53.446;9.988;2022-08-11T16:28:51;18.27;;;16.77;;
16387;SDS011;8303;53.446;9.988;2022-08-11T16:31:20;18.33;;;17.17;;
16387;SDS011;8303;53.446;9.988;2022-08-11T16:33:48;17.20;;;15.60;;
16387;SDS011;8303;53.446;9.988;2022-08-11T16:36:18;17.58;;;15.90;;
16387;SDS011;8303;53.446;9.988;2022-08-11T16:39:04;13.48;;;12.35;;
16387;SDS011;8303;53.446;9.988;2022-08-11T16:41:33;12.93;;;12.00;;
16387;SDS011;8303;53.446;9.988;2022-08-11T16:44:20;11.90;;;11.20;;
16387;SDS011;8303;53.446;9.988;2022-08-11T16:47:06;12.27;;;11.27;;
16387;SDS011;8303;53.446;9.988;2022-08-11T16:49:36;12.60;;;11.80;;
16387;SDS011;8303;53.446;9.988;2022-08-11T16:52:07;12.90;;;12.20;;
16387;SDS011;8303;53.446;9.988;2022-08-11T16:54:37;13.27;;;12.43;;
16387;SDS011;8303;53.446;9.988;2022-08-11T16:57:06;18.33;;;16.85;;
16387;SDS011;8303;53.446;9.988;2022-08-11T16:59:57;13.10;;;12.18;;
16387;SDS011;8303;53.446;9.988;2022-08-11T17:02:29;14.05;;;13.05;;
16387;SDS011;8303;53.446;9.988;2022-08-11T17:05:16;14.38;;;13.40;;
16387;SDS011;8303;53.446;9.988;2022-08-11T17:08:05;24.67;;;23.20;;
16387;SDS011;8303;53.446;9.988;2022-08-11T17:10:51;19.17;;;17.88;;
16387;SDS011;8303;53.446;9.988;2022-08-11T17:13:41;28.05;;;26.17;;
16387;SDS011;8303;53.446;9.988;2022-08-11T17:16:13;20.15;;;18.55;;
16387;SDS011;8303;53.446;9.988;2022-08-11T17:18:47;32.88;;;30.45;;
16387;SDS011;8303;53.446;9.988;2022-08-11T17:21:20;25.52;;;23.98;;
16387;SDS011;8303;53.446;9.988;2022-08-11T17:23:52;21.77;;;20.48;;
16387;SDS011;8303;53.446;9.988;2022-08-11T17:26:21;28.33;;;26.65;;
16387;SDS011;8303;53.446;9.988;2022-08-11T17:28:53;30.73;;;28.92;;
16387;SDS011;8303;53.446;9.988;2022-08-11T17:31:25;30.88;;;29.02;;
16387;SDS011;8303;53.446;9.988;2022-08-11T17:34:13;37.35;;;35.05;;
16387;SDS011;8303;53.446;9.988;2022-08-11T17:36:57;45.20;;;42.53;;
16387;SDS011;8303;53.446;9.988;2022-08-11T17:39:26;47.20;;;44.53;;
16387;SDS011;8303;53.446;9.988;2022-08-11T17:41:55;49.97;;;47.28;;
16387;SDS011;8303;53.446;9.988;2022-08-11T17:44:42;59.20;;;55.67;;
16387;SDS011;8303;53.446;9.988;2022-08-11T17:47:28;78.32;;;74.13;;
16387;SDS011;8303;53.446;9.988;2022-08-11T17:50:13;138.88;;;131.48;;
16387;SDS011;8303;53.446;9.988;2022-08-11T17:52:40;169.63;;;161.00;;
16387;SDS011;8303;53.446;9.988;2022-08-11T17:55:27;206.07;;;195.43;;
16387;SDS011;8303;53.446;9.988;2022-08-11T17:58:14;234.88;;;222.88;;
16387;SDS011;8303;53.446;9.988;2022-08-11T18:01:00;214.50;;;203.63;;
16387;SDS011;8303;53.446;9.988;2022-08-11T18:03:29;176.13;;;167.07;;
16387;SDS011;8303;53.446;9.988;2022-08-11T18:05:58;160.30;;;151.75;;
16387;SDS011;8303;53.446;9.988;2022-08-11T18:08:27;167.85;;;159.30;;
16387;SDS011;8303;53.446;9.988;2022-08-11T18:11:13;164.95;;;156.45;;
16387;SDS011;8303;53.446;9.988;2022-08-11T18:14:00;197.55;;;187.57;;
16387;SDS011;8303;53.446;9.988;2022-08-11T18:16:46;181.13;;;172.02;;
16387;SDS011;8303;53.446;9.988;2022-08-11T18:19:32;164.80;;;156.45;;
16387;SDS011;8303;53.446;9.988;2022-08-11T18:22:17;162.48;;;154.20;;
16387;SDS011;8303;53.446;9.988;2022-08-11T18:25:05;159.75;;;151.60;;
16387;SDS011;8303;53.446;9.988;2022-08-11T18:27:53;150.35;;;142.68;;
16387;SDS011;8303;53.446;9.988;2022-08-11T18:30:40;154.15;;;145.48;;
16387;SDS011;8303;53.446;9.988;2022-08-11T18:33:27;125.95;;;119.65;;
16387;SDS011;8303;53.446;9.988;2022-08-11T18:36:21;127.55;;;121.05;;
16387;SDS011;8303;53.446;9.988;2022-08-11T18:39:11;101.35;;;96.00;;
16387;SDS011;8303;53.446;9.988;2022-08-11T18:41:57;125.55;;;118.95;;
16387;SDS011;8303;53.446;9.988;2022-08-11T18:44:46;108.72;;;102.80;;
16387;SDS011;8303;53.446;9.988;2022-08-11T18:47:33;108.65;;;103.03;;
16387;SDS011;8303;53.446;9.988;2022-08-11T18:50:19;106.68;;;101.25;;
16387;SDS011;8303;53.446;9.988;2022-08-11T18:53:05;93.32;;;88.38;;
16387;SDS011;8303;53.446;9.988;2022-08-11T18:55:52;84.60;;;79.82;;
16387;SDS011;8303;53.446;9.988;2022-08-11T18:58:36;81.97;;;77.43;;
16387;SDS011;8303;53.446;9.988;2022-08-11T19:01:25;64.32;;;60.90;;
16387;SDS011;8303;53.446;9.988;2022-08-11T19:04:11;60.05;;;56.58;;
16387;SDS011;8303;53.446;9.988;2022-08-11T19:06:57;60.05;;;56.20;;
16387;SDS011;8303;53.446;9.988;2022-08-11T19:09:44;55.85;;;52.75;;
16387;SDS011;8303;53.446;9.988;2022-08-11T19:12:30;52.42;;;49.15;;
16387;SDS011;8303;53.446;9.988;2022-08-11T19:15:17;50.60;;;47.65;;
16387;SDS011;8303;53.446;9.988;2022-08-11T19:18:03;55.85;;;52.10;;
16387;SDS011;8303;53.446;9.988;2022-08-11T19:20:49;48.17;;;45.13;;
16387;SDS011;8303;53.446;9.988;2022-08-11T19:23:37;48.10;;;45.17;;
16387;SDS011;8303;53.446;9.988;2022-08-11T19:26:28;49.95;;;47.03;;
16387;SDS011;8303;53.446;9.988;2022-08-11T19:29:16;46.97;;;43.78;;
16387;SDS011;8303;53.446;9.988;2022-08-11T19:32:03;44.40;;;41.50;;
16387;SDS011;8303;53.446;9.988;2022-08-11T19:34:48;43.67;;;40.83;;
16387;SDS011;8303;53.446;9.988;2022-08-11T19:37:33;45.33;;;42.63;;
16387;SDS011;8303;53.446;9.988;2022-08-11T19:40:19;39.80;;;37.28;;
16387;SDS011;8303;53.446;9.988;2022-08-11T19:43:06;39.47;;;37.33;;
16387;SDS011;8303;53.446;9.988;2022-08-11T19:45:52;39.40;;;36.90;;
16387;SDS011;8303;53.446;9.988;2022-08-11T19:48:38;42.17;;;39.53;;
16387;SDS011;8303;53.446;9.988;2022-08-11T19:51:24;37.13;;;34.78;;
16387;SDS011;8303;53.446;9.988;2022-08-11T19:54:09;36.70;;;34.35;;
16387;SDS011;8303;53.446;9.988;2022-08-11T19:56:55;35.60;;;33.45;;
16387;SDS011;8303;53.446;9.988;2022-08-11T19:59:42;38.70;;;35.63;;
16387;SDS011;8303;53.446;9.988;2022-08-11T20:02:27;37.97;;;35.47;;
16387;SDS011;8303;53.446;9.988;2022-08-11T20:05:12;35.42;;;33.47;;
16387;SDS011;8303;53.446;9.988;2022-08-11T20:07:56;34.38;;;32.47;;
16387;SDS011;8303;53.446;9.988;2022-08-11T20:10:42;30.92;;;28.85;;
16387;SDS011;8303;53.446;9.988;2022-08-11T20:13:29;30.05;;;28.48;;
16387;SDS011;8303;53.446;9.988;2022-08-11T20:16:17;32.25;;;30.35;;
16387;SDS011;8303;53.446;9.988;2022-08-11T20:19:03;27.95;;;26.15;;
16387;SDS011;8303;53.446;9.988;2022-08-11T20:21:49;28.17;;;26.67;;
16387;SDS011;8303;53.446;9.988;2022-08-11T20:24:35;27.30;;;25.40;;
16387;SDS011;8303;53.446;9.988;2022-08-11T20:27:19;28.63;;;27.02;;
16387;SDS011;8303;53.446;9.988;2022-08-11T20:30:05;25.73;;;23.98;;
